createdAt,value
2022-10-31T00:01:33.301Z,3.87
2022-10-31T00:04:01.255Z,4.10
2022-10-31T00:06:29.362Z,3.70
2022-10-31T00:08:59.214Z,3.43
2022-10-31T00:11:28.892Z,4.00
2022-10-31T00:13:57.151Z,3.20
2022-10-31T00:16:27.048Z,3.10
2022-10-31T00:18:56.841Z,3.77
2022-10-31T00:21:25.191Z,3.30
2022-10-31T00:23:53.275Z,2.90
2022-10-31T00:26:21.277Z,3.20
2022-10-31T00:28:51.918Z,3.10
2022-10-31T00:31:19.746Z,3.57
2022-10-31T00:33:47.594Z,3.60
2022-10-31T00:36:17.558Z,3.10
2022-10-31T00:38:46.775Z,3.23
2022-10-31T00:41:16.204Z,3.27
2022-10-31T00:43:44.578Z,3.67
2022-10-31T00:46:14.472Z,4.07
2022-10-31T00:48:42.491Z,3.47
2022-10-31T00:51:10.624Z,4.10
2022-10-31T00:53:38.479Z,3.20
2022-10-31T00:56:07.396Z,3.70
2022-10-31T00:58:35.222Z,3.50
2022-10-31T01:01:03.203Z,3.27
2022-10-31T01:03:34.539Z,3.60
2022-10-31T01:06:04.696Z,3.70
2022-10-31T01:08:32.911Z,3.00
2022-10-31T01:11:07.240Z,2.90
2022-10-31T01:13:35.968Z,4.90
2022-10-31T01:16:05.356Z,2.57
2022-10-31T01:18:35.370Z,3.00
2022-10-31T01:21:05.647Z,3.20
2022-10-31T01:23:34.040Z,3.00
2022-10-31T01:26:08.432Z,3.23
2022-10-31T01:28:37.033Z,3.20
2022-10-31T01:31:08.236Z,3.57
2022-10-31T01:33:38.541Z,3.10
2022-10-31T01:36:15.136Z,2.87
2022-10-31T01:38:43.061Z,2.87
2022-10-31T01:41:12.424Z,3.33
2022-10-31T01:43:49.307Z,3.60
2022-10-31T01:46:19.229Z,2.97
2022-10-31T01:48:49.588Z,2.70
2022-10-31T01:51:21.972Z,3.00
2022-10-31T01:53:52.404Z,2.90
2022-10-31T01:56:20.749Z,2.53
2022-10-31T01:58:49.191Z,3.10
2022-10-31T02:01:18.771Z,3.33
2022-10-31T02:03:49.846Z,3.40
2022-10-31T02:06:27.751Z,3.07
2022-10-31T02:08:56.695Z,2.97
2022-10-31T02:11:25.153Z,2.93
2022-10-31T02:13:53.248Z,3.30
2022-10-31T02:16:21.114Z,3.63
2022-10-31T02:18:50.292Z,3.03
2022-10-31T02:21:23.059Z,3.27
2022-10-31T02:24:27.415Z,3.80
2022-10-31T02:27:22.122Z,2.83
2022-10-31T02:30:05.355Z,3.33
2022-10-31T02:32:52.036Z,3.47
2022-10-31T02:35:32.401Z,3.17
2022-10-31T02:38:06.306Z,3.40
2022-10-31T02:40:38.696Z,3.50
2022-10-31T02:45:48.088Z,2.73
2022-10-31T02:48:21.728Z,3.73
2022-10-31T02:50:54.960Z,3.07
2022-10-31T02:53:22.771Z,3.37
2022-10-31T02:56:00.111Z,2.77
2022-10-31T02:58:33.056Z,2.90
2022-10-31T03:01:20.250Z,3.57
2022-10-31T03:04:01.954Z,3.40
2022-10-31T03:06:34.392Z,2.70
2022-10-31T03:09:13.168Z,3.20
2022-10-31T03:11:47.956Z,3.20
2022-10-31T03:14:23.586Z,2.47
2022-10-31T03:16:53.137Z,4.60
2022-10-31T03:19:27.732Z,3.63
2022-10-31T03:22:00.510Z,4.07
2022-10-31T03:24:33.455Z,2.90
2022-10-31T03:27:03.295Z,3.23
2022-10-31T03:29:34.921Z,3.40
2022-10-31T03:32:08.484Z,3.00
2022-10-31T03:34:39.746Z,2.67
2022-10-31T03:37:11.886Z,2.83
2022-10-31T03:39:42.487Z,2.90
2022-10-31T03:42:13.703Z,2.33
2022-10-31T03:44:45.047Z,3.07
2022-10-31T03:47:13.004Z,2.80
2022-10-31T03:49:42.523Z,2.50
2022-10-31T03:52:21.347Z,2.30
2022-10-31T03:54:55.101Z,2.67
2022-10-31T03:57:27.677Z,3.10
2022-10-31T03:59:59.269Z,2.87
2022-10-31T04:02:32.409Z,2.80
2022-10-31T04:05:03.348Z,3.07
2022-10-31T04:07:35.336Z,2.90
2022-10-31T04:10:08.861Z,2.97
2022-10-31T04:12:38.233Z,2.53
2022-10-31T04:15:09.728Z,2.77
2022-10-31T04:17:42.206Z,2.50
2022-10-31T04:20:12.421Z,3.60
2022-10-31T04:22:40.291Z,2.47
2022-10-31T04:25:09.489Z,2.60
2022-10-31T04:27:37.280Z,2.57
2022-10-31T04:30:05.770Z,2.57
2022-10-31T04:32:33.578Z,3.20
2022-10-31T04:35:01.433Z,2.37
2022-10-31T04:37:30.583Z,3.00
2022-10-31T04:39:58.412Z,2.90
2022-10-31T04:42:26.244Z,2.63
2022-10-31T04:44:54.045Z,3.23
2022-10-31T04:47:21.867Z,3.20
2022-10-31T04:49:49.796Z,2.63
2022-10-31T04:52:17.625Z,3.27
2022-10-31T04:54:46.805Z,2.87
2022-10-31T04:57:14.631Z,2.83
2022-10-31T04:59:42.437Z,2.80
2022-10-31T05:02:10.396Z,2.87
2022-10-31T05:04:38.288Z,3.17
2022-10-31T05:07:06.129Z,2.17
2022-10-31T05:09:34.053Z,2.47
2022-10-31T05:12:03.260Z,2.93
2022-10-31T05:14:31.075Z,3.03
2022-10-31T05:16:58.903Z,3.17
2022-10-31T05:19:26.700Z,2.53
2022-10-31T05:21:54.520Z,2.10
2022-10-31T05:24:22.656Z,3.30
2022-10-31T05:26:50.930Z,2.47
2022-10-31T05:29:20.147Z,2.73
2022-10-31T05:31:47.955Z,2.80
2022-10-31T05:34:15.767Z,2.70
2022-10-31T05:36:43.575Z,3.07
2022-10-31T05:39:11.352Z,3.00
2022-10-31T05:41:39.180Z,3.47
2022-10-31T05:44:07.373Z,3.17
2022-10-31T05:46:36.650Z,2.73
2022-10-31T05:49:04.550Z,2.90
2022-10-31T05:51:32.408Z,2.60
2022-10-31T05:54:00.210Z,3.03
2022-10-31T05:56:28.037Z,2.63
2022-10-31T05:58:56.044Z,3.30
2022-10-31T06:01:23.895Z,2.97
2022-10-31T06:03:53.098Z,3.00
2022-10-31T06:06:21.408Z,2.97
2022-10-31T06:08:49.228Z,2.60
2022-10-31T06:11:17.050Z,2.70
2022-10-31T06:13:45.904Z,4.00
2022-10-31T06:16:13.732Z,2.77
2022-10-31T06:18:41.555Z,3.30
2022-10-31T06:21:12.465Z,2.67
2022-10-31T06:23:42.848Z,2.90
2022-10-31T06:26:10.840Z,3.20
2022-10-31T06:28:38.681Z,3.30
2022-10-31T06:31:06.888Z,3.53
2022-10-31T06:33:35.130Z,2.83
2022-10-31T06:36:03.349Z,2.37
2022-10-31T06:38:32.502Z,2.47
2022-10-31T06:41:03.663Z,2.90
2022-10-31T06:43:31.591Z,3.50
2022-10-31T06:46:00.028Z,3.30
2022-10-31T06:48:27.873Z,2.60
2022-10-31T06:50:59.810Z,3.60
2022-10-31T06:53:27.760Z,2.80
2022-10-31T06:55:57.309Z,3.60
2022-10-31T06:58:25.346Z,3.47
2022-10-31T07:00:53.200Z,3.40
2022-10-31T07:03:21.224Z,2.90
2022-10-31T07:05:49.060Z,3.00
2022-10-31T07:08:16.930Z,3.80
2022-10-31T07:10:45.387Z,2.63
2022-10-31T07:13:16.323Z,3.70
2022-10-31T07:15:45.559Z,2.87
2022-10-31T07:18:14.192Z,3.00
2022-10-31T07:20:42.069Z,3.20
2022-10-31T07:23:10.820Z,2.90
2022-10-31T07:25:38.679Z,2.90
2022-10-31T07:28:06.854Z,2.83
2022-10-31T07:30:36.189Z,2.93
2022-10-31T07:33:04.306Z,3.13
2022-10-31T07:35:32.765Z,3.10
2022-10-31T07:38:09.366Z,3.10
2022-10-31T07:40:37.437Z,2.40
2022-10-31T07:43:11.543Z,2.80
2022-10-31T07:45:43.440Z,2.40
2022-10-31T07:48:11.406Z,2.70
2022-10-31T07:50:40.142Z,2.50
2022-10-31T07:53:09.564Z,3.00
2022-10-31T07:55:38.126Z,2.47
2022-10-31T07:58:08.047Z,2.97
2022-10-31T08:00:37.576Z,3.07
2022-10-31T08:03:08.421Z,3.03
2022-10-31T08:05:36.696Z,2.80
2022-10-31T08:08:05.412Z,3.63
2022-10-31T08:10:34.444Z,3.13
2022-10-31T08:13:04.595Z,3.67
2022-10-31T08:15:32.829Z,3.53
2022-10-31T08:18:01.014Z,3.13
2022-10-31T08:20:30.486Z,3.40
2022-10-31T08:22:59.825Z,2.97
2022-10-31T08:25:30.974Z,3.10
2022-10-31T08:28:02.639Z,3.33
2022-10-31T08:30:37.246Z,3.20
2022-10-31T08:33:07.058Z,2.63
2022-10-31T08:35:36.203Z,2.50
2022-10-31T08:38:04.997Z,2.70
2022-10-31T08:40:34.125Z,3.20
2022-10-31T08:43:03.688Z,2.90
2022-10-31T08:45:33.091Z,2.53
2022-10-31T08:48:02.186Z,2.57
2022-10-31T08:50:31.555Z,3.43
2022-10-31T08:53:05.912Z,3.30
2022-10-31T08:55:35.684Z,2.73
2022-10-31T08:58:04.285Z,3.10
2022-10-31T09:00:32.571Z,3.03
2022-10-31T09:03:01.769Z,3.20
2022-10-31T09:05:32.092Z,3.23
2022-10-31T09:08:00.998Z,3.27
2022-10-31T09:10:32.262Z,3.47
2022-10-31T09:13:01.233Z,3.50
2022-10-31T09:15:30.292Z,3.00
2022-10-31T09:17:58.719Z,3.17
2022-10-31T09:20:26.858Z,3.77
2022-10-31T09:22:58.989Z,5.63
2022-10-31T09:25:27.578Z,3.93
2022-10-31T09:27:59.770Z,3.37
2022-10-31T09:30:30.484Z,3.87
2022-10-31T09:32:59.124Z,3.83
2022-10-31T09:35:27.536Z,3.67
2022-10-31T09:37:58.674Z,3.33
2022-10-31T09:40:32.307Z,3.63
2022-10-31T09:43:10.115Z,3.70
2022-10-31T09:45:46.087Z,4.33
2022-10-31T09:48:33.759Z,4.40
2022-10-31T09:51:06.352Z,3.70
2022-10-31T09:53:39.740Z,4.03
2022-10-31T09:56:10.708Z,4.90
2022-10-31T09:58:46.959Z,4.07
2022-10-31T10:01:26.702Z,4.00
2022-10-31T10:03:59.498Z,3.63
2022-10-31T10:06:31.555Z,2.97
2022-10-31T10:08:59.425Z,2.63
2022-10-31T10:11:43.516Z,2.93
2022-10-31T10:14:28.825Z,3.13
2022-10-31T10:17:13.851Z,3.57
2022-10-31T10:20:06.397Z,2.87
2022-10-31T10:22:44.860Z,3.07
2022-10-31T10:25:21.745Z,3.13
2022-10-31T10:27:59.202Z,2.77
2022-10-31T10:30:36.187Z,2.60
2022-10-31T10:33:10.176Z,3.07
2022-10-31T10:35:43.631Z,2.60
2022-10-31T10:38:19.249Z,3.40
2022-10-31T10:40:48.320Z,2.80
2022-10-31T10:43:25.659Z,3.50
2022-10-31T10:46:23.523Z,3.30
2022-10-31T10:48:57.875Z,3.30
2022-10-31T10:51:54.729Z,2.77
2022-10-31T10:54:48.799Z,3.27
2022-10-31T10:57:29.784Z,3.17
2022-10-31T10:59:57.955Z,2.87
2022-10-31T11:02:30.374Z,2.90
2022-10-31T11:05:00.601Z,3.90
2022-10-31T11:07:39.184Z,2.60
2022-10-31T11:10:14.130Z,3.00
2022-10-31T11:12:43.182Z,3.40
2022-10-31T11:15:22.175Z,3.43
2022-10-31T11:17:53.476Z,2.93
2022-10-31T11:20:32.851Z,2.80
2022-10-31T11:23:07.263Z,3.23
2022-10-31T11:25:35.540Z,2.70
2022-10-31T11:28:04.833Z,3.17
2022-10-31T11:30:47.080Z,3.17
2022-10-31T11:33:24.780Z,3.20
2022-10-31T11:35:57.090Z,2.87
2022-10-31T11:38:32.003Z,2.70
2022-10-31T11:41:07.115Z,2.77
2022-10-31T11:43:35.025Z,2.63
2022-10-31T11:46:11.546Z,3.10
2022-10-31T11:48:40.767Z,2.70
2022-10-31T11:51:09.400Z,3.00
2022-10-31T11:53:37.701Z,2.90
2022-10-31T11:56:12.240Z,3.57
2022-10-31T11:58:40.080Z,2.90
2022-10-31T12:01:08.312Z,2.80
2022-10-31T12:03:45.896Z,3.20
2022-10-31T12:06:19.843Z,3.00
2022-10-31T12:08:48.417Z,2.70
2022-10-31T12:11:33.628Z,3.30
2022-10-31T12:14:16.058Z,3.00
2022-10-31T12:16:50.839Z,3.80
2022-10-31T12:19:28.168Z,3.60
2022-10-31T12:22:06.408Z,3.47
2022-10-31T12:24:56.926Z,2.93
2022-10-31T12:27:34.855Z,2.90
2022-10-31T12:30:21.647Z,2.57
2022-10-31T12:33:17.358Z,3.30
2022-10-31T12:35:57.966Z,3.40
2022-10-31T12:38:44.923Z,4.20
2022-10-31T12:41:26.235Z,3.60
2022-10-31T12:44:02.310Z,2.77
2022-10-31T12:46:52.910Z,3.00
2022-10-31T12:49:32.703Z,3.60
2022-10-31T12:52:15.930Z,2.37
2022-10-31T12:54:55.805Z,2.83
2022-10-31T12:57:29.719Z,2.83
2022-10-31T13:00:02.798Z,3.10
2022-10-31T13:02:35.435Z,2.77
2022-10-31T13:05:06.835Z,3.20
2022-10-31T13:07:39.867Z,2.90
2022-10-31T13:10:15.569Z,2.23
2022-10-31T13:12:45.117Z,2.97
2022-10-31T13:15:18.737Z,3.20
2022-10-31T13:17:49.889Z,3.67
2022-10-31T13:20:23.747Z,3.30
2022-10-31T13:22:56.147Z,3.20
2022-10-31T13:25:27.322Z,2.90
2022-10-31T13:27:58.966Z,3.27
2022-10-31T13:30:29.750Z,3.80
2022-10-31T13:33:04.076Z,3.03
2022-10-31T13:35:39.878Z,3.23
2022-10-31T13:38:18.459Z,3.87
2022-10-31T13:40:53.606Z,3.20
2022-10-31T13:43:30.919Z,2.87
2022-10-31T13:45:58.784Z,3.13
2022-10-31T13:48:42.144Z,2.97
2022-10-31T13:51:11.864Z,3.30
2022-10-31T13:53:46.281Z,3.20
2022-10-31T13:56:21.098Z,3.33
2022-10-31T13:59:20.718Z,3.60
2022-10-31T14:02:01.061Z,3.27
2022-10-31T14:04:35.073Z,3.77
2022-10-31T14:07:09.438Z,3.30
2022-10-31T14:09:41.111Z,3.03
2022-10-31T14:12:14.128Z,3.30
2022-10-31T14:14:49.825Z,3.23
2022-10-31T14:17:25.328Z,3.73
2022-10-31T14:20:22.087Z,2.90
2022-10-31T14:22:50.305Z,4.17
2022-10-31T14:25:31.158Z,3.70
2022-10-31T14:28:00.192Z,3.90
2022-10-31T14:30:30.285Z,3.20
2022-10-31T14:33:01.457Z,3.80
2022-10-31T14:35:44.438Z,3.30
2022-10-31T14:38:36.222Z,3.30
2022-10-31T14:41:37.734Z,3.93
2022-10-31T14:44:26.352Z,3.00
2022-10-31T14:47:04.215Z,4.20
2022-10-31T14:49:48.771Z,4.27
2022-10-31T14:52:18.698Z,3.50
2022-10-31T14:54:51.266Z,4.50
2022-10-31T14:57:24.548Z,3.70
2022-10-31T15:00:00.669Z,4.43
2022-10-31T15:02:37.482Z,6.93
2022-10-31T15:05:10.024Z,4.43
2022-10-31T15:07:40.958Z,3.20
2022-10-31T15:10:22.300Z,4.20
2022-10-31T15:12:51.908Z,3.67
2022-10-31T15:15:22.953Z,3.67
2022-10-31T15:17:54.068Z,4.07
2022-10-31T15:20:25.081Z,3.80
2022-10-31T15:22:53.241Z,4.47
2022-10-31T15:25:23.114Z,3.83
2022-10-31T15:27:54.083Z,4.40
2022-10-31T15:30:23.489Z,4.23
2022-10-31T15:32:58.354Z,4.00
2022-10-31T15:35:28.846Z,4.03
2022-10-31T15:37:58.331Z,4.47
2022-10-31T15:40:29.024Z,4.20
2022-10-31T15:43:01.216Z,3.40
2022-10-31T15:45:31.483Z,3.50
2022-10-31T15:48:02.406Z,4.13
2022-10-31T15:50:34.727Z,4.43
2022-10-31T15:53:03.817Z,4.53
2022-10-31T15:55:35.001Z,4.10
2022-10-31T15:58:12.548Z,3.53
2022-10-31T16:00:40.827Z,3.93
2022-10-31T16:03:24.762Z,3.83
2022-10-31T16:05:54.607Z,3.60
2022-10-31T16:08:27.614Z,4.20
2022-10-31T16:10:56.891Z,4.30
2022-10-31T16:13:30.044Z,4.33
2022-10-31T16:16:32.750Z,4.17
2022-10-31T16:18:51.358Z,4.30
2022-10-31T16:21:26.683Z,4.30
2022-10-31T16:24:02.739Z,4.10
2022-10-31T16:26:33.278Z,3.90
2022-10-31T16:29:05.552Z,4.20
2022-10-31T16:31:39.139Z,4.37
2022-10-31T16:34:15.902Z,4.20
2022-10-31T16:36:44.252Z,4.43
2022-10-31T16:39:12.174Z,4.07
2022-10-31T16:41:42.380Z,3.63
2022-10-31T16:44:19.437Z,3.73
2022-10-31T16:46:47.436Z,3.63
2022-10-31T16:49:17.341Z,4.20
2022-10-31T16:51:46.472Z,4.20
2022-10-31T16:54:14.272Z,4.37
2022-10-31T16:56:43.913Z,4.20
2022-10-31T16:59:16.344Z,4.20
2022-10-31T17:01:46.672Z,4.57
2022-10-31T17:04:16.266Z,4.47
2022-10-31T17:06:44.209Z,4.60
2022-10-31T17:09:12.176Z,3.93
2022-10-31T17:11:49.450Z,5.03
2022-10-31T17:14:20.490Z,3.87
2022-10-31T17:16:48.391Z,4.80
2022-10-31T17:19:16.418Z,3.73
2022-10-31T17:21:44.321Z,3.50
2022-10-31T17:24:14.456Z,3.67
2022-10-31T17:26:43.284Z,4.50
2022-10-31T17:29:11.150Z,3.80
2022-10-31T17:31:40.315Z,3.70
2022-10-31T17:34:08.647Z,3.60
2022-10-31T17:36:37.392Z,4.00
2022-10-31T17:39:07.830Z,3.50
2022-10-31T17:41:35.858Z,4.30
2022-10-31T17:44:03.691Z,4.07
2022-10-31T17:46:31.585Z,3.40
2022-10-31T17:49:01.738Z,4.13
2022-10-31T17:51:29.591Z,3.70
2022-10-31T17:53:58.589Z,3.40
2022-10-31T17:56:26.614Z,3.93
2022-10-31T17:58:57.078Z,3.93
2022-10-31T18:01:25.372Z,3.70
2022-10-31T18:03:53.322Z,3.83
2022-10-31T18:06:22.523Z,4.30
2022-10-31T18:08:50.304Z,4.10
2022-10-31T18:11:20.683Z,3.80
2022-10-31T18:13:48.753Z,3.80
2022-10-31T18:16:19.062Z,4.00
2022-10-31T18:18:51.256Z,3.13
2022-10-31T18:21:19.094Z,3.97
2022-10-31T18:23:48.799Z,3.67
2022-10-31T18:26:16.631Z,4.10
2022-10-31T18:28:44.451Z,3.70
2022-10-31T18:31:12.280Z,3.80
2022-10-31T18:33:42.331Z,5.03
2022-10-31T18:36:11.805Z,4.07
2022-10-31T18:38:40.807Z,3.90
2022-10-31T18:41:10.430Z,3.20
2022-10-31T18:43:38.837Z,4.20
2022-10-31T18:46:08.798Z,3.40
2022-10-31T18:48:37.180Z,4.80
2022-10-31T18:51:05.812Z,3.57
2022-10-31T18:53:34.167Z,3.00
2022-10-31T18:56:02.454Z,4.40
2022-10-31T18:58:33.219Z,3.73
2022-10-31T19:01:01.504Z,4.13
2022-10-31T19:03:29.553Z,4.13
2022-10-31T19:05:57.639Z,3.60
2022-10-31T19:08:25.537Z,4.43
2022-10-31T19:10:53.520Z,4.80
2022-10-31T19:13:21.349Z,4.80
2022-10-31T19:15:50.580Z,4.27
2022-10-31T19:18:18.876Z,4.00
2022-10-31T19:20:46.723Z,3.63
2022-10-31T19:23:14.975Z,5.00
2022-10-31T19:28:15.531Z,3.30
2022-10-31T19:30:43.379Z,4.60
2022-10-31T19:33:12.540Z,6.60
2022-10-31T19:35:40.353Z,5.70
2022-10-31T19:38:08.171Z,4.00
2022-10-31T19:40:37.727Z,5.30
2022-10-31T19:43:05.554Z,4.80
2022-10-31T19:45:33.410Z,6.03
2022-10-31T19:48:01.425Z,7.60
2022-10-31T19:50:31.032Z,7.17
2022-10-31T19:52:59.026Z,7.80
2022-10-31T19:55:26.870Z,7.37
2022-10-31T19:58:01.967Z,4.67
2022-10-31T20:00:30.272Z,3.83
2022-10-31T20:02:58.451Z,4.57
2022-10-31T20:05:26.850Z,5.20
2022-10-31T20:07:57.124Z,6.13
2022-10-31T20:10:25.192Z,4.87
2022-10-31T20:12:53.000Z,4.87
2022-10-31T20:15:20.824Z,4.03
2022-10-31T20:17:48.658Z,4.23
2022-10-31T20:20:16.615Z,3.80
2022-10-31T20:22:47.141Z,5.03
2022-10-31T20:25:16.555Z,4.67
2022-10-31T20:27:44.414Z,4.70
2022-10-31T20:30:13.650Z,4.10
2022-10-31T20:32:42.692Z,4.07
2022-10-31T20:35:13.081Z,4.07
2022-10-31T20:37:41.071Z,4.23
2022-10-31T20:40:10.339Z,4.30
2022-10-31T20:42:39.483Z,4.60
2022-10-31T20:45:08.233Z,4.80
2022-10-31T20:47:36.111Z,3.70
2022-10-31T20:50:05.256Z,3.80
2022-10-31T20:52:33.428Z,4.20
2022-10-31T20:55:01.297Z,4.23
2022-10-31T20:57:29.203Z,4.17
2022-10-31T20:59:58.350Z,3.50
2022-10-31T21:02:26.312Z,4.13
2022-10-31T21:04:54.242Z,4.10
2022-10-31T21:07:22.085Z,5.13
2022-10-31T21:09:49.963Z,4.93
2022-10-31T21:12:17.803Z,4.63
2022-10-31T21:14:45.615Z,5.10
2022-10-31T21:17:14.754Z,5.70
2022-10-31T21:19:42.622Z,3.97
2022-10-31T21:22:10.474Z,5.03
2022-10-31T21:24:38.882Z,4.87
2022-10-31T21:27:09.946Z,5.27
2022-10-31T21:29:40.424Z,4.70
2022-10-31T21:32:08.227Z,4.83
2022-10-31T21:34:37.934Z,4.23
2022-10-31T21:37:06.120Z,4.57
2022-10-31T21:39:33.993Z,5.07
2022-10-31T21:42:01.842Z,4.50
2022-10-31T21:44:29.715Z,7.57
2022-10-31T21:46:57.610Z,6.30
2022-10-31T21:49:25.429Z,6.23
2022-10-31T21:51:54.619Z,4.23
2022-10-31T21:54:27.423Z,4.50
2022-10-31T21:56:55.456Z,4.03
2022-10-31T21:59:23.371Z,4.40
2022-10-31T22:01:51.928Z,4.60
2022-10-31T22:04:20.261Z,4.00
2022-10-31T22:06:48.065Z,4.20
2022-10-31T22:09:19.604Z,3.60
2022-10-31T22:11:47.788Z,4.00
2022-10-31T22:14:16.298Z,4.20
2022-10-31T22:16:44.699Z,3.83
2022-10-31T22:19:14.244Z,3.90
2022-10-31T22:21:44.260Z,3.43
2022-10-31T22:24:12.267Z,4.40
2022-10-31T22:26:41.509Z,4.47
2022-10-31T22:29:12.678Z,3.97
2022-10-31T22:31:42.299Z,3.80
2022-10-31T22:34:10.922Z,3.83
2022-10-31T22:36:39.258Z,3.90
2022-10-31T22:39:08.025Z,3.53
2022-10-31T22:41:37.171Z,3.97
2022-10-31T22:44:06.926Z,4.73
2022-10-31T22:46:37.068Z,3.80
2022-10-31T22:49:06.947Z,3.73
2022-10-31T22:51:37.816Z,3.30
2022-10-31T22:54:07.943Z,3.67
2022-10-31T22:56:35.962Z,4.10
2022-10-31T22:59:04.322Z,3.87
2022-10-31T23:01:34.965Z,4.43
2022-10-31T23:04:03.171Z,5.53
2022-10-31T23:06:33.311Z,6.50
2022-10-31T23:09:02.400Z,3.27
2022-10-31T23:11:33.159Z,3.03
2022-10-31T23:14:11.916Z,2.60
2022-10-31T23:16:44.209Z,2.80
2022-10-31T23:19:13.788Z,3.30
2022-10-31T23:21:56.274Z,2.60
2022-10-31T23:24:26.784Z,4.20
2022-10-31T23:27:10.173Z,3.00
2022-10-31T23:29:41.118Z,2.77
2022-10-31T23:32:12.346Z,4.27
2022-10-31T23:34:40.251Z,3.67
2022-10-31T23:39:41.535Z,2.50
2022-10-31T23:42:09.692Z,3.70
2022-10-31T23:44:37.565Z,1.80
2022-10-31T23:47:05.944Z,2.30
2022-10-31T23:49:35.443Z,2.70
2022-10-31T23:52:03.501Z,2.07
2022-10-31T23:54:31.380Z,2.47
2022-10-31T23:56:59.366Z,1.73
2022-10-31T23:59:29.013Z,2.37
